Fontana Observed Data For Previous 48 Hours

Caption
Day and Hour Reservoir Elevation (behind dam)* Tailwater Elevation (below dam)* Average Hourly Discharge*
1/17/2018 2 AM EST 1,652.11 1,277.42 3,006
1/17/2018 3 AM EST 1,652.08 1,277.89 3,189
1/17/2018 4 AM EST 1,652.07 1,279.99 6,250
1/17/2018 5 AM EST 1,652.02 1,281.13 7,089
1/17/2018 6 AM EST 1,651.93 1,281.32 9,417
1/17/2018 7 AM EST 1,651.88 1,281.12 9,340
1/17/2018 8 AM EST 1,651.83 1,281.15 8,985
1/17/2018 9 AM EST 1,651.73 1,281.46 8,962
1/17/2018 10 AM EST 1,651.68 1,281.19 9,417
1/17/2018 11 AM EST 1,651.61 1,280.55 8,651
1/17/2018 12 PM EST 1,651.55 1,279.03 5,832
1/17/2018 1 PM EST 1,651.52 1,279.21 5,398
1/17/2018 2 PM EST 1,651.51 1,279.45 5,750
1/17/2018 3 PM EST 1,651.48 1,279.38 5,919
1/17/2018 4 PM EST 1,651.43 1,279.58 5,849
1/17/2018 5 PM EST 1,651.41 1,280.04 6,171
1/17/2018 6 PM EST 1,651.38 1,279.68 6,443
1/17/2018 7 PM EST 1,651.33 1,281.28 9,439
1/17/2018 8 PM EST 1,651.24 1,281.15 9,055
1/17/2018 9 PM EST 1,651.19 1,281.15 9,029
1/17/2018 10 PM EST 1,651.14 1,281.42 9,065
1/17/2018 11 PM EST 1,651.08 1,280.73 9,216
1/18/2018 12 AM EST 1,651.02 1,279.71 6,092
1/18/2018 1 AM EST 1,651.02 1,279.26 3,745
1/18/2018 2 AM EST 1,651.01 1,280.80 6,310
1/18/2018 3 AM EST 1,650.94 1,281.55 9,293
1/18/2018 4 AM EST 1,650.82 1,281.70 9,132
1/18/2018 5 AM EST 1,650.78 1,281.27 9,118
1/18/2018 6 AM EST 1,650.73 1,281.26 9,067
1/18/2018 7 AM EST 1,650.66 1,281.25 9,487
1/18/2018 8 AM EST 1,650.58 1,281.32 9,976
1/18/2018 9 AM EST 1,650.50 1,281.22 9,057
1/18/2018 10 AM EST 1,650.45 1,280.54 8,346
1/18/2018 11 AM EST 1,650.41 1,279.44 5,729
1/18/2018 12 PM EST 1,650.40 1,277.36 4,510
1/18/2018 1 PM EST 1,650.40 1,277.20 3,006
1/18/2018 2 PM EST 1,650.39 1,277.32 3,171
1/18/2018 3 PM EST 1,650.38 1,277.38 3,239
1/18/2018 4 PM EST 1,650.38 1,277.22 3,112
1/18/2018 5 PM EST 1,650.36 1,279.10 3,828
1/18/2018 6 PM EST 1,650.31 1,280.16 6,739
1/18/2018 7 PM EST 1,650.26 1,281.23 9,717
1/18/2018 8 PM EST 1,650.18 1,281.60 9,308
1/18/2018 9 PM EST 1,650.11 1,280.95 9,411
1/18/2018 10 PM EST 1,650.06 1,281.25 9,323
1/18/2018 11 PM EST 1,649.98 1,281.50 9,008
1/19/2018 12 AM EST 1,649.95 1,279.64 6,350

Elevations are in feet above sea level. Discharges are in cubic feet per second and are reported at the end of the hour.